x

East Gulf - 208 Mn West Of Naples, Fl (42003) Wave Buoy

1:50pm - Sun 5th Jul 2015 All times are EDT. -4 hours from GMT.

  • Sig Wave height 2.3ft
  • Swell Direction
  • Peak Period 9s
  • Average Period 6s
  • Wind
    7mph, 9mph gusts
  • Sea Temp 86°f
  • Air Temp 85°f
  • Sea Pressure 1020.4mb
  • East Gulf - 208 Mn West Of Naples, Fl
  • East Gulf - 208 Mn West Of Naples, Fl

More Historic Weather Station data

Upgrade to MSW Pro to gain access to the past 30 days of data for over 8000 Wavebouys and Weather Stations around the globe.

Join Pro

Comparision Forecast

View Surf forecast
   
Sun 07/05 1:50pm 2.5ft 9s 6s 7 9 mph 1020.4mb 86f 85f
12:50pm 2.5ft 9s 6s 7 9 mph 1020.7mb 86f 85f
11:50am 2.5ft 9s 6s 9 11 mph 1020.6mb 86f 85f
10:50am 2.5ft 9s 5s 11
mph
1020.3mb 86f 85f
9:50am 2.5ft 8s 5s 9 11 mph 1020.3mb 86f 85f
8:50am 2.5ft 10s 5s 11 13 mph 1019.9mb 86f 85f
7:50am 2.5ft 10s 5s 9 11 mph 1019.6mb 86f 85f
6:50am 2.5ft 9s 6s 11 13 mph 1019.1mb 86f 85f
5:50am 2.5ft 8s 5s 9 11 mph 1018.5mb 86f 85f
4:50am 2.5ft 7s 5s 7 9 mph 1018.5mb 86f 85f
3:50am 2.5ft 9s 6s 11 13 mph 1018.2mb 86f 85f
2:50am 2.5ft 10s 6s 9 11 mph 1018.8mb 86f 85f
1:50am 2.5ft 9s 6s 9 11 mph 1019.1mb 86f 85f
12:50am 2.5ft 10s 6s 9 13 mph 1019.2mb 86f 85f
Sat 07/04 11:50pm 2.5ft 9s 6s 9 11 mph 1019.3mb 86f 85f
10:50pm 2.5ft 9s 6s 7 9 mph 1019.1mb 86f 85f
9:50pm 2.5ft 9s 6s 7
mph
1018.7mb 86f 85f
8:50pm 2.5ft 10s 6s 4 7 mph 1018.2mb 86f 85f
7:50pm 2.5ft 9s 5s 9 11 mph 1017.6mb 87f 85f
6:50pm 2ft 10s 5s 7 9 mph 1017.3mb 87f 85f
5:50pm 2ft 10s 6s 7 9 mph 1017.6mb 87f 85f
4:50pm 2ft 8s  -  9 11 mph 1017.7mb 87f 85f
3:50pm 2ft 9s 5s 7 9 mph 1018.1mb 87f 85f
2:50pm 2.5ft 5s 5s 7 9 mph 1018.8mb 87f 85f
1:50pm 2.5ft 9s 5s 7 9 mph 1019.3mb 86f 85f
12:50pm 2.5ft 6s 5s 7 9 mph 1019.4mb 86f 85f
11:50am 2.5ft 9s 5s 7 9 mph 1019.3mb 86f 85f
10:50am 2.5ft 5s 5s 7 9 mph 1019mb 86f 85f
9:50am 2.5ft 5s 5s 9 11 mph 1018.8mb 85f 85f
8:50am 2.5ft 5s 5s 7 9 mph 1018.2mb 85f 84f
7:50am 2.5ft 6s 4s 11 13 mph 1017.7mb 85f 84f
6:50am 2.5ft 5s 5s 11 16 mph 1017.3mb 85f 84f
5:50am 2.5ft 6s 5s 13 16 mph 1017mb 85f 84f
4:50am 2.5ft 6s 5s 13 16 mph 1017mb 85f 84f
3:50am 2.5ft 7s 5s 11 16 mph 1017.1mb 85f 84f
2:50am 2.5ft 8s 5s 13 16 mph 1017.7mb 85f 84f
1:50am 2.5ft 8s 5s 13 16 mph 1017.9mb 85f 84f
12:50am 2.5ft 7s 5s 11 13 mph 1018.3mb 85f 85f
Fri 07/03 11:50pm 2.5ft 6s 5s 13
mph
1018.6mb 86f 85f
10:50pm 2.5ft 7s 5s 13 16 mph 1018.1mb 86f 85f
9:50pm 2.5ft 8s 5s 11 16 mph 1017.6mb 86f 85f
8:50pm 2.5ft 7s 5s 11 13 mph 1017.4mb 86f 85f
7:50pm 2.5ft 9s 5s 9 11 mph 1017.3mb 86f 85f
6:50pm 2.5ft 8s 5s 9 11 mph 1017.1mb 86f 85f
5:50pm 2ft 8s 5s 9 11 mph 1017.2mb 86f 85f
4:50pm 2.5ft 8s 5s 9 11 mph 1017.4mb 86f 85f
3:50pm 2ft 8s 5s 9 11 mph 1017.7mb 86f 85f
2:50pm 2ft 5s 5s 11 13 mph 1018mb 86f 85f
1:50pm 2.5ft 5s 5s 9 11 mph 1018.1mb 86f 85f
12:50pm 2.5ft 6s 5s 9 11 mph 1018.4mb 86f 85f
11:50am 2.5ft 5s 5s 11 13 mph 1018.4mb 86f 85f
10:50am 2.5ft 7s 5s 9 13 mph 1018.5mb 85f 85f
9:50am 2.5ft 5s 5s 9 11 mph 1018.3mb 85f 85f
8:50am 2.5ft 6s 5s 9 11 mph 1017.8mb 85f 85f
7:50am 2.5ft 7s 5s 9 11 mph 1017.2mb 85f 84f
6:50am 2.5ft 6s 5s 9
mph
1016.8mb 85f 84f
5:50am 2.5ft 7s 5s 9
mph
1016.8mb 85f 84f
4:50am 2.5ft 6s 5s 11 13 mph 1016.7mb 85f 84f
3:50am 3ft 7s 5s 13 16 mph 1016.9mb 85f 84f
2:50am 2.5ft 7s 5s 13 16 mph 1017.4mb 85f 84f
1:50am 3ft 6s 5s 13 16 mph 1017.9mb 85f 84f
12:50am 3ft 6s 5s 13 18 mph 1018.4mb 85f 85f
Thu 07/02 11:50pm 2.5ft 7s 5s 13 16 mph 1018.3mb 85f 85f
10:50pm 2.5ft 7s 5s 11 13 mph 1018.1mb 86f 85f
9:50pm 2.5ft 9s 6s 13 16 mph 1018mb 86f 85f
8:50pm 2.5ft 7s 6s 11 13 mph 1017.6mb 86f 85f
7:50pm 2.5ft 7s 5s 9 11 mph 1017.4mb 86f 85f
6:50pm 2.5ft 7s 5s 9
mph
1017.3mb 86f 85f
5:50pm 2.5ft 5s 5s 7 9 mph 1017.6mb 86f 85f
4:50pm 2.5ft 6s 5s 7 9 mph 1017.9mb 86f 85f
3:50pm 2.5ft 7s 5s 9 11 mph 1018.2mb 86f 85f
2:50pm 2.5ft 7s 5s 9 11 mph 1019mb 86f 85f
1:50pm 2.5ft 6s 5s 11 13 mph 1019.3mb 86f 85f
12:50pm 2.5ft 6s 5s 11 13 mph 1020mb 85f 85f
11:50am 2.5ft 7s 5s 11 13 mph 1019.6mb 85f 85f
10:50am 2.5ft 8s 5s 11 16 mph 1019.4mb 85f 85f
9:50am 2.5ft 7s 5s 11 13 mph 1019mb 85f 85f
8:50am 3ft 7s 5s 11 16 mph 1018.8mb 85f 85f
7:50am 2.5ft 8s 5s 11 13 mph 1018.4mb 85f 84f
6:50am 2.5ft 8s 5s 11 13 mph 1018mb 85f 84f
5:50am 2.5ft 8s 5s 13 16 mph 1017.7mb 85f 84f
4:50am 2.5ft 6s 5s 11 13 mph 1017.6mb 85f 84f
3:50am 2.5ft 6s 5s 9
mph
1017.6mb 85f 84f
2:50am 2.5ft 8s 5s 9 11 mph 1017.9mb 85f 85f
1:50am 2.5ft 8s 5s 13 16 mph 1018.7mb 85f 85f
12:50am 2.5ft 9s 5s 16 18 mph 1019.1mb 85f 85f
Wed 07/01 11:50pm 2.5ft 8s 5s 13 18 mph 1019.5mb 85f 85f
10:50pm 2.5ft 9s 5s 13 16 mph 1019.6mb 86f 85f
9:50pm 2.5ft 10s 4s 16 20 mph 1018.7mb 86f 85f
8:50pm 2.5ft 8s 5s 16 18 mph 1018.4mb 86f 84f
7:50pm 2ft 9s 5s 11 13 mph 1018.3mb 86f 85f
6:50pm 2.5ft 9s 5s 11 13 mph 1018.1mb 86f 85f